sensor_id;sensor_type;location;lat;lon;timestamp;temperature;humidity
8595;DHT22;4335;48.860;9.198;2023-03-07T00:00:58;4.00;99.90
8595;DHT22;4335;48.860;9.198;2023-03-07T00:03:25;4.00;99.90
8595;DHT22;4335;48.860;9.198;2023-03-07T00:06:02;4.00;99.90
8595;DHT22;4335;48.860;9.198;2023-03-07T00:08:30;4.00;99.90
8595;DHT22;4335;48.860;9.198;2023-03-07T00:11:01;3.90;99.90
8595;DHT22;4335;48.860;9.198;2023-03-07T00:13:31;3.90;99.90
8595;DHT22;4335;48.860;9.198;2023-03-07T00:16:11;4.00;99.90
8595;DHT22;4335;48.860;9.198;2023-03-07T00:18:39;4.00;99.90
8595;DHT22;4335;48.860;9.198;2023-03-07T00:21:09;4.00;99.90
8595;DHT22;4335;48.860;9.198;2023-03-07T00:23:40;3.90;99.90
8595;DHT22;4335;48.860;9.198;2023-03-07T00:26:11;4.00;99.90
8595;DHT22;4335;48.860;9.198;2023-03-07T00:28:41;4.00;99.90
8595;DHT22;4335;48.860;9.198;2023-03-07T00:31:09;4.00;99.90
8595;DHT22;4335;48.860;9.198;2023-03-07T00:33:37;4.00;99.90
8595;DHT22;4335;48.860;9.198;2023-03-07T00:36:11;3.90;99.90
8595;DHT22;4335;48.860;9.198;2023-03-07T00:38:39;4.00;99.90
8595;DHT22;4335;48.860;9.198;2023-03-07T00:41:08;4.00;99.90
8595;DHT22;4335;48.860;9.198;2023-03-07T00:43:36;4.00;99.90
8595;DHT22;4335;48.860;9.198;2023-03-07T00:46:06;4.00;99.90
8595;DHT22;4335;48.860;9.198;2023-03-07T00:48:34;4.00;99.90
8595;DHT22;4335;48.860;9.198;2023-03-07T00:51:02;4.00;99.90
8595;DHT22;4335;48.860;9.198;2023-03-07T00:53:30;4.00;99.90
8595;DHT22;4335;48.860;9.198;2023-03-07T00:56:00;4.00;99.90
8595;DHT22;4335;48.860;9.198;2023-03-07T00:58:29;4.00;99.90
8595;DHT22;4335;48.860;9.198;2023-03-07T01:00:59;3.90;99.90
8595;DHT22;4335;48.860;9.198;2023-03-07T01:03:28;4.00;99.90
8595;DHT22;4335;48.860;9.198;2023-03-07T01:05:57;4.00;99.90
8595;DHT22;4335;48.860;9.198;2023-03-07T01:08:27;3.90;99.90
8595;DHT22;4335;48.860;9.198;2023-03-07T01:10:57;4.00;99.90
8595;DHT22;4335;48.860;9.198;2023-03-07T01:13:25;3.90;99.90
8595;DHT22;4335;48.860;9.198;2023-03-07T01:16:06;4.00;99.90
8595;DHT22;4335;48.860;9.198;2023-03-07T01:18:35;4.00;99.90
8595;DHT22;4335;48.860;9.198;2023-03-07T01:21:10;4.00;99.90
8595;DHT22;4335;48.860;9.198;2023-03-07T01:23:39;4.00;99.90
8595;DHT22;4335;48.860;9.198;2023-03-07T01:26:14;4.00;99.90
8595;DHT22;4335;48.860;9.198;2023-03-07T01:28:43;4.00;99.90
8595;DHT22;4335;48.860;9.198;2023-03-07T01:31:11;3.90;99.90
8595;DHT22;4335;48.860;9.198;2023-03-07T01:33:45;4.00;99.90
8595;DHT22;4335;48.860;9.198;2023-03-07T01:36:20;4.00;99.90
8595;DHT22;4335;48.860;9.198;2023-03-07T01:38:53;4.00;99.90
8595;DHT22;4335;48.860;9.198;2023-03-07T01:41:21;4.00;99.90
8595;DHT22;4335;48.860;9.198;2023-03-07T01:43:49;4.00;99.90
8595;DHT22;4335;48.860;9.198;2023-03-07T01:49:18;3.90;99.90
8595;DHT22;4335;48.860;9.198;2023-03-07T01:51:53;4.00;99.90
8595;DHT22;4335;48.860;9.198;2023-03-07T01:54:22;4.00;99.90
8595;DHT22;4335;48.860;9.198;2023-03-07T01:56:51;3.90;99.90
8595;DHT22;4335;48.860;9.198;2023-03-07T01:59:26;3.90;99.90
8595;DHT22;4335;48.860;9.198;2023-03-07T02:01:55;3.90;99.90
8595;DHT22;4335;48.860;9.198;2023-03-07T02:04:28;3.90;99.90
8595;DHT22;4335;48.860;9.198;2023-03-07T02:06:58;3.90;99.90
8595;DHT22;4335;48.860;9.198;2023-03-07T02:09:27;3.90;99.90
8595;DHT22;4335;48.860;9.198;2023-03-07T02:11:56;3.90;99.90
8595;DHT22;4335;48.860;9.198;2023-03-07T02:14:28;4.00;99.90
8595;DHT22;4335;48.860;9.198;2023-03-07T02:16:55;4.00;99.90
8595;DHT22;4335;48.860;9.198;2023-03-07T02:19:36;4.00;99.90
8595;DHT22;4335;48.860;9.198;2023-03-07T02:22:08;4.00;99.90
8595;DHT22;4335;48.860;9.198;2023-03-07T02:24:42;3.90;99.90
8595;DHT22;4335;48.860;9.198;2023-03-07T02:27:13;4.00;99.90
8595;DHT22;4335;48.860;9.198;2023-03-07T02:29:40;4.00;99.90
8595;DHT22;4335;48.860;9.198;2023-03-07T02:32:08;4.00;99.90
8595;DHT22;4335;48.860;9.198;2023-03-07T02:34:36;4.00;99.90
8595;DHT22;4335;48.860;9.198;2023-03-07T02:37:05;4.00;99.90
8595;DHT22;4335;48.860;9.198;2023-03-07T02:39:35;4.00;99.90
8595;DHT22;4335;48.860;9.198;2023-03-07T02:42:09;4.00;99.90
8595;DHT22;4335;48.860;9.198;2023-03-07T02:44:43;4.00;99.90
8595;DHT22;4335;48.860;9.198;2023-03-07T02:47:11;4.00;99.90
8595;DHT22;4335;48.860;9.198;2023-03-07T02:49:38;4.00;99.90
8595;DHT22;4335;48.860;9.198;2023-03-07T02:52:05;3.90;99.90
8595;DHT22;4335;48.860;9.198;2023-03-07T02:54:33;3.90;99.90
8595;DHT22;4335;48.860;9.198;2023-03-07T02:57:08;3.90;99.90
8595;DHT22;4335;48.860;9.198;2023-03-07T02:59:35;3.90;99.90
8595;DHT22;4335;48.860;9.198;2023-03-07T03:02:04;3.80;99.90
8595;DHT22;4335;48.860;9.198;2023-03-07T03:04:31;3.80;99.90
8595;DHT22;4335;48.860;9.198;2023-03-07T03:07:02;3.80;99.90
8595;DHT22;4335;48.860;9.198;2023-03-07T03:09:29;3.80;99.90
8595;DHT22;4335;48.860;9.198;2023-03-07T03:11:57;3.80;99.90
8595;DHT22;4335;48.860;9.198;2023-03-07T03:14:25;3.80;99.90
8595;DHT22;4335;48.860;9.198;2023-03-07T03:16:52;3.80;99.90
8595;DHT22;4335;48.860;9.198;2023-03-07T03:19:21;3.80;99.90
8595;DHT22;4335;48.860;9.198;2023-03-07T03:21:49;3.80;99.90
8595;DHT22;4335;48.860;9.198;2023-03-07T03:24:16;3.80;99.90
8595;DHT22;4335;48.860;9.198;2023-03-07T03:26:43;3.90;99.90
8595;DHT22;4335;48.860;9.198;2023-03-07T03:29:11;3.90;99.90
8595;DHT22;4335;48.860;9.198;2023-03-07T03:31:39;3.90;99.90
8595;DHT22;4335;48.860;9.198;2023-03-07T03:34:06;4.00;99.90
8595;DHT22;4335;48.860;9.198;2023-03-07T03:36:35;4.00;99.90
8595;DHT22;4335;48.860;9.198;2023-03-07T03:39:03;4.00;99.90
8595;DHT22;4335;48.860;9.198;2023-03-07T03:41:35;4.00;99.90
8595;DHT22;4335;48.860;9.198;2023-03-07T03:44:06;4.10;99.90
8595;DHT22;4335;48.860;9.198;2023-03-07T03:46:34;4.00;99.90
8595;DHT22;4335;48.860;9.198;2023-03-07T03:49:02;4.10;99.90
8595;DHT22;4335;48.860;9.198;2023-03-07T03:51:30;4.10;99.90
8595;DHT22;4335;48.860;9.198;2023-03-07T03:53:59;4.10;99.90
8595;DHT22;4335;48.860;9.198;2023-03-07T03:56:29;4.10;99.90
8595;DHT22;4335;48.860;9.198;2023-03-07T03:58:57;4.10;99.90
8595;DHT22;4335;48.860;9.198;2023-03-07T04:01:27;4.10;99.90
8595;DHT22;4335;48.860;9.198;2023-03-07T04:03:55;4.10;99.90
8595;DHT22;4335;48.860;9.198;2023-03-07T04:06:25;4.10;99.90
8595;DHT22;4335;48.860;9.198;2023-03-07T04:08:53;4.00;99.90
8595;DHT22;4335;48.860;9.198;2023-03-07T04:11:27;4.00;99.90
8595;DHT22;4335;48.860;9.198;2023-03-07T04:13:54;4.00;99.90
8595;DHT22;4335;48.860;9.198;2023-03-07T04:16:22;4.00;99.90
8595;DHT22;4335;48.860;9.198;2023-03-07T04:18:49;3.90;99.90
8595;DHT22;4335;48.860;9.198;2023-03-07T04:21:29;3.90;99.90
8595;DHT22;4335;48.860;9.198;2023-03-07T04:23:56;4.00;99.90
8595;DHT22;4335;48.860;9.198;2023-03-07T04:26:28;4.00;99.90
8595;DHT22;4335;48.860;9.198;2023-03-07T04:28:55;4.00;99.90
8595;DHT22;4335;48.860;9.198;2023-03-07T04:31:24;4.00;99.90
8595;DHT22;4335;48.860;9.198;2023-03-07T04:33:53;4.10;99.90
8595;DHT22;4335;48.860;9.198;2023-03-07T04:36:22;4.00;99.90
8595;DHT22;4335;48.860;9.198;2023-03-07T04:38:50;4.00;99.90
8595;DHT22;4335;48.860;9.198;2023-03-07T04:41:18;4.00;99.90
8595;DHT22;4335;48.860;9.198;2023-03-07T04:43:49;4.00;99.90
8595;DHT22;4335;48.860;9.198;2023-03-07T04:46:19;4.10;99.90
8595;DHT22;4335;48.860;9.198;2023-03-07T04:48:53;4.10;99.90
8595;DHT22;4335;48.860;9.198;2023-03-07T04:51:20;4.10;99.90
8595;DHT22;4335;48.860;9.198;2023-03-07T04:53:47;4.10;99.90
8595;DHT22;4335;48.860;9.198;2023-03-07T04:56:23;4.10;99.90
8595;DHT22;4335;48.860;9.198;2023-03-07T04:58:52;4.10;99.90
8595;DHT22;4335;48.860;9.198;2023-03-07T05:01:22;4.10;99.90
8595;DHT22;4335;48.860;9.198;2023-03-07T05:03:49;4.10;99.90
8595;DHT22;4335;48.860;9.198;2023-03-07T05:06:17;4.10;99.90
8595;DHT22;4335;48.860;9.198;2023-03-07T05:08:50;4.10;99.90
8595;DHT22;4335;48.860;9.198;2023-03-07T05:11:17;4.10;99.90
8595;DHT22;4335;48.860;9.198;2023-03-07T05:13:44;4.10;99.90
8595;DHT22;4335;48.860;9.198;2023-03-07T05:16:13;4.10;99.90
8595;DHT22;4335;48.860;9.198;2023-03-07T05:18:42;4.10;99.90
8595;DHT22;4335;48.860;9.198;2023-03-07T05:21:09;4.10;99.90
8595;DHT22;4335;48.860;9.198;2023-03-07T05:23:37;4.10;99.90
8595;DHT22;4335;48.860;9.198;2023-03-07T05:26:04;4.10;99.90
8595;DHT22;4335;48.860;9.198;2023-03-07T05:28:32;4.10;99.90
8595;DHT22;4335;48.860;9.198;2023-03-07T05:30:59;4.00;99.90
8595;DHT22;4335;48.860;9.198;2023-03-07T05:33:35;4.00;99.90
8595;DHT22;4335;48.860;9.198;2023-03-07T05:36:03;4.00;99.90
8595;DHT22;4335;48.860;9.198;2023-03-07T05:38:30;4.10;99.90
8595;DHT22;4335;48.860;9.198;2023-03-07T05:40:58;4.10;99.90
8595;DHT22;4335;48.860;9.198;2023-03-07T05:43:25;4.10;99.90
8595;DHT22;4335;48.860;9.198;2023-03-07T05:45:53;4.10;99.90
8595;DHT22;4335;48.860;9.198;2023-03-07T05:48:20;4.10;99.90
8595;DHT22;4335;48.860;9.198;2023-03-07T05:50:52;4.10;99.90
8595;DHT22;4335;48.860;9.198;2023-03-07T05:53:19;4.10;99.90
8595;DHT22;4335;48.860;9.198;2023-03-07T05:55:46;4.10;99.90
8595;DHT22;4335;48.860;9.198;2023-03-07T05:58:20;4.10;99.90
8595;DHT22;4335;48.860;9.198;2023-03-07T06:00:50;4.10;99.90
8595;DHT22;4335;48.860;9.198;2023-03-07T06:03:21;4.10;99.90
8595;DHT22;4335;48.860;9.198;2023-03-07T06:05:56;4.20;99.90
8595;DHT22;4335;48.860;9.198;2023-03-07T06:08:23;4.10;99.90
8595;DHT22;4335;48.860;9.198;2023-03-07T06:10:52;4.10;99.90
8595;DHT22;4335;48.860;9.198;2023-03-07T06:13:21;4.10;99.90
8595;DHT22;4335;48.860;9.198;2023-03-07T06:15:49;4.10;99.90
8595;DHT22;4335;48.860;9.198;2023-03-07T06:18:17;4.10;99.90
8595;DHT22;4335;48.860;9.198;2023-03-07T06:20:52;4.20;99.90
8595;DHT22;4335;48.860;9.198;2023-03-07T06:23:21;4.30;99.90
8595;DHT22;4335;48.860;9.198;2023-03-07T06:25:48;4.40;99.90
8595;DHT22;4335;48.860;9.198;2023-03-07T06:28:19;4.40;99.90
8595;DHT22;4335;48.860;9.198;2023-03-07T06:30:46;4.50;99.90
8595;DHT22;4335;48.860;9.198;2023-03-07T06:33:14;4.50;99.90
8595;DHT22;4335;48.860;9.198;2023-03-07T06:35:42;4.50;99.90
8595;DHT22;4335;48.860;9.198;2023-03-07T06:38:11;4.60;99.90
8595;DHT22;4335;48.860;9.198;2023-03-07T06:40:40;4.70;99.90
8595;DHT22;4335;48.860;9.198;2023-03-07T06:43:08;4.70;99.90
8595;DHT22;4335;48.860;9.198;2023-03-07T06:45:39;4.70;99.90
8595;DHT22;4335;48.860;9.198;2023-03-07T06:48:06;4.80;99.90
8595;DHT22;4335;48.860;9.198;2023-03-07T06:50:33;4.80;99.90
8595;DHT22;4335;48.860;9.198;2023-03-07T06:53:01;4.80;99.90
8595;DHT22;4335;48.860;9.198;2023-03-07T06:55:28;4.90;99.90
8595;DHT22;4335;48.860;9.198;2023-03-07T06:57:57;5.00;99.90
8595;DHT22;4335;48.860;9.198;2023-03-07T07:00:25;5.00;99.90
8595;DHT22;4335;48.860;9.198;2023-03-07T07:02:55;4.90;99.90
8595;DHT22;4335;48.860;9.198;2023-03-07T07:05:23;4.90;99.90
8595;DHT22;4335;48.860;9.198;2023-03-07T07:07:53;4.80;99.90
8595;DHT22;4335;48.860;9.198;2023-03-07T07:10:20;4.90;99.90
8595;DHT22;4335;48.860;9.198;2023-03-07T07:12:48;4.90;99.90
8595;DHT22;4335;48.860;9.198;2023-03-07T07:15:20;4.90;99.90
8595;DHT22;4335;48.860;9.198;2023-03-07T07:17:49;4.90;99.90
8595;DHT22;4335;48.860;9.198;2023-03-07T07:20:17;5.00;99.90
8595;DHT22;4335;48.860;9.198;2023-03-07T07:22:44;4.90;99.90
8595;DHT22;4335;48.860;9.198;2023-03-07T07:25:12;5.00;99.90
8595;DHT22;4335;48.860;9.198;2023-03-07T07:27:42;5.00;99.90
8595;DHT22;4335;48.860;9.198;2023-03-07T07:30:11;5.10;99.90
8595;DHT22;4335;48.860;9.198;2023-03-07T07:32:40;5.20;99.90
8595;DHT22;4335;48.860;9.198;2023-03-07T07:35:09;5.20;99.90
8595;DHT22;4335;48.860;9.198;2023-03-07T07:37:36;5.30;99.90
8595;DHT22;4335;48.860;9.198;2023-03-07T07:40:06;5.30;99.90
8595;DHT22;4335;48.860;9.198;2023-03-07T07:42:39;5.40;99.90
8595;DHT22;4335;48.860;9.198;2023-03-07T07:45:08;5.40;99.90
8595;DHT22;4335;48.860;9.198;2023-03-07T07:47:40;5.20;99.90
8595;DHT22;4335;48.860;9.198;2023-03-07T07:50:08;5.20;99.90
8595;DHT22;4335;48.860;9.198;2023-03-07T07:52:36;5.40;99.90
8595;DHT22;4335;48.860;9.198;2023-03-07T07:55:07;5.50;99.90
8595;DHT22;4335;48.860;9.198;2023-03-07T07:57:35;5.60;99.90
8595;DHT22;4335;48.860;9.198;2023-03-07T08:00:03;5.70;99.90
8595;DHT22;4335;48.860;9.198;2023-03-07T08:02:33;5.80;99.90
8595;DHT22;4335;48.860;9.198;2023-03-07T08:05:08;5.80;99.90
8595;DHT22;4335;48.860;9.198;2023-03-07T08:07:37;5.90;99.90
8595;DHT22;4335;48.860;9.198;2023-03-07T08:10:05;6.00;99.90
8595;DHT22;4335;48.860;9.198;2023-03-07T08:12:33;6.20;99.90
8595;DHT22;4335;48.860;9.198;2023-03-07T08:15:00;6.20;99.90
8595;DHT22;4335;48.860;9.198;2023-03-07T08:17:31;6.20;99.90
8595;DHT22;4335;48.860;9.198;2023-03-07T08:19:58;6.10;99.90
8595;DHT22;4335;48.860;9.198;2023-03-07T08:22:32;6.00;99.90
8595;DHT22;4335;48.860;9.198;2023-03-07T08:25:03;6.20;99.90
8595;DHT22;4335;48.860;9.198;2023-03-07T08:27:30;6.30;99.90
8595;DHT22;4335;48.860;9.198;2023-03-07T08:30:04;6.30;99.90
8595;DHT22;4335;48.860;9.198;2023-03-07T08:32:32;6.40;99.90
8595;DHT22;4335;48.860;9.198;2023-03-07T08:34:59;6.40;99.90
8595;DHT22;4335;48.860;9.198;2023-03-07T08:37:28;6.40;99.90
8595;DHT22;4335;48.860;9.198;2023-03-07T08:40:00;6.50;99.90
8595;DHT22;4335;48.860;9.198;2023-03-07T08:42:29;6.50;99.90
8595;DHT22;4335;48.860;9.198;2023-03-07T08:44:59;6.50;99.90
8595;DHT22;4335;48.860;9.198;2023-03-07T08:47:27;6.70;99.90
8595;DHT22;4335;48.860;9.198;2023-03-07T08:49:54;6.90;99.90
8595;DHT22;4335;48.860;9.198;2023-03-07T08:52:22;6.90;99.90
8595;DHT22;4335;48.860;9.198;2023-03-07T08:54:52;7.00;99.90
8595;DHT22;4335;48.860;9.198;2023-03-07T08:57:21;7.30;99.90
8595;DHT22;4335;48.860;9.198;2023-03-07T08:59:49;7.30;99.90
8595;DHT22;4335;48.860;9.198;2023-03-07T09:02:19;7.20;99.90
8595;DHT22;4335;48.860;9.198;2023-03-07T09:04:48;7.20;99.90
8595;DHT22;4335;48.860;9.198;2023-03-07T09:07:15;7.20;99.90
8595;DHT22;4335;48.860;9.198;2023-03-07T09:09:44;7.10;99.90
8595;DHT22;4335;48.860;9.198;2023-03-07T09:12:11;7.00;99.90
8595;DHT22;4335;48.860;9.198;2023-03-07T09:14:40;7.10;99.90
8595;DHT22;4335;48.860;9.198;2023-03-07T09:17:07;7.00;99.90
8595;DHT22;4335;48.860;9.198;2023-03-07T09:19:38;7.10;99.90
8595;DHT22;4335;48.860;9.198;2023-03-07T09:22:10;7.20;99.90
8595;DHT22;4335;48.860;9.198;2023-03-07T09:24:40;7.20;99.90
8595;DHT22;4335;48.860;9.198;2023-03-07T09:27:10;7.20;99.90
8595;DHT22;4335;48.860;9.198;2023-03-07T09:29:38;7.30;99.90
8595;DHT22;4335;48.860;9.198;2023-03-07T09:32:07;7.20;99.90
8595;DHT22;4335;48.860;9.198;2023-03-07T09:34:34;7.20;99.90
8595;DHT22;4335;48.860;9.198;2023-03-07T09:37:02;7.30;99.90
8595;DHT22;4335;48.860;9.198;2023-03-07T09:39:29;7.40;99.90
8595;DHT22;4335;48.860;9.198;2023-03-07T09:42:15;7.60;99.90
8595;DHT22;4335;48.860;9.198;2023-03-07T09:48:06;7.40;99.90
8595;DHT22;4335;48.860;9.198;2023-03-07T09:50:43;7.30;99.90
8595;DHT22;4335;48.860;9.198;2023-03-07T09:53:20;7.30;99.90
8595;DHT22;4335;48.860;9.198;2023-03-07T09:55:49;7.30;99.90
8595;DHT22;4335;48.860;9.198;2023-03-07T09:58:20;7.10;99.90
8595;DHT22;4335;48.860;9.198;2023-03-07T10:00:56;7.00;99.90
8595;DHT22;4335;48.860;9.198;2023-03-07T10:03:42;6.90;99.90
8595;DHT22;4335;48.860;9.198;2023-03-07T10:06:13;6.80;99.90
8595;DHT22;4335;48.860;9.198;2023-03-07T10:08:42;6.80;99.90
8595;DHT22;4335;48.860;9.198;2023-03-07T10:11:27;6.70;99.90
8595;DHT22;4335;48.860;9.198;2023-03-07T10:14:27;6.70;99.90
8595;DHT22;4335;48.860;9.198;2023-03-07T10:17:04;6.70;99.90
8595;DHT22;4335;48.860;9.198;2023-03-07T10:19:40;6.60;99.90
8595;DHT22;4335;48.860;9.198;2023-03-07T10:22:15;6.60;99.90
8595;DHT22;4335;48.860;9.198;2023-03-07T10:25:13;6.50;99.90
8595;DHT22;4335;48.860;9.198;2023-03-07T10:27:44;6.60;99.90
8595;DHT22;4335;48.860;9.198;2023-03-07T10:30:19;6.60;99.90
8595;DHT22;4335;48.860;9.198;2023-03-07T10:32:51;6.50;99.90
8595;DHT22;4335;48.860;9.198;2023-03-07T10:35:22;6.50;99.90
8595;DHT22;4335;48.860;9.198;2023-03-07T10:37:53;6.40;99.90
8595;DHT22;4335;48.860;9.198;2023-03-07T10:40:24;6.40;99.90
8595;DHT22;4335;48.860;9.198;2023-03-07T10:42:53;6.40;99.90
8595;DHT22;4335;48.860;9.198;2023-03-07T10:45:21;6.40;99.90
8595;DHT22;4335;48.860;9.198;2023-03-07T10:47:48;6.60;99.90
8595;DHT22;4335;48.860;9.198;2023-03-07T10:50:26;6.60;99.90
8595;DHT22;4335;48.860;9.198;2023-03-07T10:52:56;6.50;99.90
8595;DHT22;4335;48.860;9.198;2023-03-07T10:55:46;6.50;99.90
8595;DHT22;4335;48.860;9.198;2023-03-07T10:58:23;6.40;99.90
8595;DHT22;4335;48.860;9.198;2023-03-07T11:01:00;6.40;99.90
8595;DHT22;4335;48.860;9.198;2023-03-07T11:03:32;6.40;99.90
8595;DHT22;4335;48.860;9.198;2023-03-07T11:06:01;6.40;99.90
8595;DHT22;4335;48.860;9.198;2023-03-07T11:08:30;6.40;99.90
8595;DHT22;4335;48.860;9.198;2023-03-07T11:10:59;6.50;99.90
8595;DHT22;4335;48.860;9.198;2023-03-07T11:13:27;6.40;99.90
8595;DHT22;4335;48.860;9.198;2023-03-07T11:16:18;6.40;99.90
8595;DHT22;4335;48.860;9.198;2023-03-07T11:18:46;6.50;99.90
8595;DHT22;4335;48.860;9.198;2023-03-07T11:21:29;6.40;99.90
8595;DHT22;4335;48.860;9.198;2023-03-07T11:24:02;6.40;99.90
8595;DHT22;4335;48.860;9.198;2023-03-07T11:26:32;6.40;99.90
8595;DHT22;4335;48.860;9.198;2023-03-07T11:29:08;6.40;99.90
8595;DHT22;4335;48.860;9.198;2023-03-07T11:31:54;6.40;99.90
8595;DHT22;4335;48.860;9.198;2023-03-07T11:34:32;6.50;99.90
8595;DHT22;4335;48.860;9.198;2023-03-07T11:37:19;6.40;99.90
8595;DHT22;4335;48.860;9.198;2023-03-07T11:40:09;6.50;99.90
8595;DHT22;4335;48.860;9.198;2023-03-07T11:42:49;6.50;99.90
8595;DHT22;4335;48.860;9.198;2023-03-07T11:45:31;6.50;99.90
8595;DHT22;4335;48.860;9.198;2023-03-07T11:48:14;6.50;99.90
8595;DHT22;4335;48.860;9.198;2023-03-07T11:50:53;6.40;99.90
8595;DHT22;4335;48.860;9.198;2023-03-07T11:53:54;6.30;99.90
8595;DHT22;4335;48.860;9.198;2023-03-07T11:56:31;6.30;99.90
8595;DHT22;4335;48.860;9.198;2023-03-07T11:59:20;6.30;99.90
8595;DHT22;4335;48.860;9.198;2023-03-07T12:01:55;6.20;99.90
8595;DHT22;4335;48.860;9.198;2023-03-07T12:04:46;6.30;99.90
8595;DHT22;4335;48.860;9.198;2023-03-07T12:07:32;6.30;99.90
8595;DHT22;4335;48.860;9.198;2023-03-07T12:10:07;6.40;99.90
8595;DHT22;4335;48.860;9.198;2023-03-07T12:12:47;6.40;99.90
8595;DHT22;4335;48.860;9.198;2023-03-07T12:15:28;6.50;99.90
8595;DHT22;4335;48.860;9.198;2023-03-07T12:21:07;6.60;99.90
8595;DHT22;4335;48.860;9.198;2023-03-07T12:23:39;6.70;99.90
8595;DHT22;4335;48.860;9.198;2023-03-07T12:26:16;6.90;99.90
8595;DHT22;4335;48.860;9.198;2023-03-07T12:28:48;7.10;99.90
8595;DHT22;4335;48.860;9.198;2023-03-07T12:31:21;7.20;99.90
8595;DHT22;4335;48.860;9.198;2023-03-07T12:33:57;7.20;99.90
8595;DHT22;4335;48.860;9.198;2023-03-07T12:36:41;7.20;99.90
8595;DHT22;4335;48.860;9.198;2023-03-07T12:39:16;7.10;99.90
8595;DHT22;4335;48.860;9.198;2023-03-07T12:41:53;7.00;99.90
8595;DHT22;4335;48.860;9.198;2023-03-07T12:44:30;7.10;99.90
8595;DHT22;4335;48.860;9.198;2023-03-07T12:47:03;7.20;99.90
8595;DHT22;4335;48.860;9.198;2023-03-07T12:49:40;7.40;99.90
8595;DHT22;4335;48.860;9.198;2023-03-07T12:52:15;7.60;99.90
8595;DHT22;4335;48.860;9.198;2023-03-07T12:54:58;7.60;99.90
8595;DHT22;4335;48.860;9.198;2023-03-07T12:57:30;7.70;99.90
8595;DHT22;4335;48.860;9.198;2023-03-07T13:00:04;7.70;99.90
8595;DHT22;4335;48.860;9.198;2023-03-07T13:02:39;7.60;99.90
8595;DHT22;4335;48.860;9.198;2023-03-07T13:05:17;7.60;99.90
8595;DHT22;4335;48.860;9.198;2023-03-07T13:07:48;7.70;99.90
8595;DHT22;4335;48.860;9.198;2023-03-07T13:10:21;7.90;99.90
8595;DHT22;4335;48.860;9.198;2023-03-07T13:12:50;7.90;99.90
8595;DHT22;4335;48.860;9.198;2023-03-07T13:15:44;7.90;99.90
8595;DHT22;4335;48.860;9.198;2023-03-07T13:18:29;8.00;99.90
8595;DHT22;4335;48.860;9.198;2023-03-07T13:24:33;7.90;99.90
8595;DHT22;4335;48.860;9.198;2023-03-07T13:27:13;8.00;99.90
8595;DHT22;4335;48.860;9.198;2023-03-07T13:30:12;8.00;99.90
8595;DHT22;4335;48.860;9.198;2023-03-07T13:32:58;7.90;99.50
8595;DHT22;4335;48.860;9.198;2023-03-07T13:35:51;7.80;99.90
8595;DHT22;4335;48.860;9.198;2023-03-07T13:38:31;7.80;99.90
8595;DHT22;4335;48.860;9.198;2023-03-07T13:40:59;7.60;99.90
8595;DHT22;4335;48.860;9.198;2023-03-07T13:43:55;7.60;99.90
8595;DHT22;4335;48.860;9.198;2023-03-07T13:46:59;7.60;99.90
8595;DHT22;4335;48.860;9.198;2023-03-07T13:52:34;7.60;99.90
8595;DHT22;4335;48.860;9.198;2023-03-07T13:55:11;7.60;99.90
8595;DHT22;4335;48.860;9.198;2023-03-07T13:57:41;7.50;99.90
8595;DHT22;4335;48.860;9.198;2023-03-07T14:00:24;7.40;99.90
8595;DHT22;4335;48.860;9.198;2023-03-07T14:02:58;7.40;99.90
8595;DHT22;4335;48.860;9.198;2023-03-07T14:05:25;7.40;99.90
8595;DHT22;4335;48.860;9.198;2023-03-07T14:07:56;7.40;99.90
8595;DHT22;4335;48.860;9.198;2023-03-07T14:10:27;7.40;99.90
8595;DHT22;4335;48.860;9.198;2023-03-07T14:13:20;7.30;99.90
8595;DHT22;4335;48.860;9.198;2023-03-07T14:16:02;7.20;99.90
8595;DHT22;4335;48.860;9.198;2023-03-07T14:21:32;7.40;99.90
8595;DHT22;4335;48.860;9.198;2023-03-07T14:24:13;7.40;99.90
8595;DHT22;4335;48.860;9.198;2023-03-07T14:26:48;7.50;99.90
8595;DHT22;4335;48.860;9.198;2023-03-07T14:29:18;7.50;99.90
8595;DHT22;4335;48.860;9.198;2023-03-07T14:31:48;7.50;99.90
8595;DHT22;4335;48.860;9.198;2023-03-07T14:34:25;7.40;99.90
8595;DHT22;4335;48.860;9.198;2023-03-07T14:36:54;7.60;99.90
8595;DHT22;4335;48.860;9.198;2023-03-07T14:39:23;7.60;99.90
8595;DHT22;4335;48.860;9.198;2023-03-07T14:41:58;7.50;99.90
8595;DHT22;4335;48.860;9.198;2023-03-07T14:45:07;7.50;99.90
8595;DHT22;4335;48.860;9.198;2023-03-07T14:50:42;7.60;99.50
8595;DHT22;4335;48.860;9.198;2023-03-07T14:53:15;7.50;99.90
8595;DHT22;4335;48.860;9.198;2023-03-07T14:55:47;7.60;99.80
8595;DHT22;4335;48.860;9.198;2023-03-07T14:58:20;7.60;99.90
8595;DHT22;4335;48.860;9.198;2023-03-07T15:00:57;7.60;99.80
8595;DHT22;4335;48.860;9.198;2023-03-07T15:03:31;7.60;99.80
8595;DHT22;4335;48.860;9.198;2023-03-07T15:06:13;7.70;99.90
8595;DHT22;4335;48.860;9.198;2023-03-07T15:08:41;7.70;99.90
8595;DHT22;4335;48.860;9.198;2023-03-07T15:11:15;7.70;99.80
8595;DHT22;4335;48.860;9.198;2023-03-07T15:13:48;7.90;99.90
8595;DHT22;4335;48.860;9.198;2023-03-07T15:16:19;7.80;99.80
8595;DHT22;4335;48.860;9.198;2023-03-07T15:18:53;7.90;99.90
8595;DHT22;4335;48.860;9.198;2023-03-07T15:21:24;7.90;99.90
8595;DHT22;4335;48.860;9.198;2023-03-07T15:23:53;7.90;99.90
8595;DHT22;4335;48.860;9.198;2023-03-07T15:26:23;7.80;99.90
8595;DHT22;4335;48.860;9.198;2023-03-07T15:29:01;7.80;99.90
8595;DHT22;4335;48.860;9.198;2023-03-07T15:31:48;7.90;99.90
8595;DHT22;4335;48.860;9.198;2023-03-07T15:34:22;7.90;99.90
8595;DHT22;4335;48.860;9.198;2023-03-07T15:36:52;7.80;99.90
8595;DHT22;4335;48.860;9.198;2023-03-07T15:39:30;7.80;99.90
8595;DHT22;4335;48.860;9.198;2023-03-07T15:42:04;7.60;99.90
8595;DHT22;4335;48.860;9.198;2023-03-07T15:44:32;7.50;99.90
8595;DHT22;4335;48.860;9.198;2023-03-07T15:47:09;7.50;99.90
8595;DHT22;4335;48.860;9.198;2023-03-07T15:49:42;7.40;99.90
8595;DHT22;4335;48.860;9.198;2023-03-07T15:52:26;7.40;99.90
8595;DHT22;4335;48.860;9.198;2023-03-07T15:54:56;7.40;99.90
8595;DHT22;4335;48.860;9.198;2023-03-07T15:57:25;7.40;99.90
8595;DHT22;4335;48.860;9.198;2023-03-07T15:59:57;7.40;99.90
8595;DHT22;4335;48.860;9.198;2023-03-07T16:02:43;7.40;99.90
8595;DHT22;4335;48.860;9.198;2023-03-07T16:05:34;7.40;99.90
8595;DHT22;4335;48.860;9.198;2023-03-07T16:08:11;7.40;99.90
8595;DHT22;4335;48.860;9.198;2023-03-07T16:10:44;7.40;99.90
8595;DHT22;4335;48.860;9.198;2023-03-07T16:13:14;7.30;99.90
8595;DHT22;4335;48.860;9.198;2023-03-07T16:15:42;7.30;99.90
8595;DHT22;4335;48.860;9.198;2023-03-07T16:18:20;7.30;99.90
8595;DHT22;4335;48.860;9.198;2023-03-07T16:20:49;7.20;99.90
8595;DHT22;4335;48.860;9.198;2023-03-07T16:23:19;7.20;99.90
8595;DHT22;4335;48.860;9.198;2023-03-07T16:25:46;7.10;99.90
8595;DHT22;4335;48.860;9.198;2023-03-07T16:28:16;7.20;99.90
8595;DHT22;4335;48.860;9.198;2023-03-07T16:30:46;7.10;99.90
8595;DHT22;4335;48.860;9.198;2023-03-07T16:33:18;7.10;99.90
8595;DHT22;4335;48.860;9.198;2023-03-07T16:35:46;7.00;99.90
8595;DHT22;4335;48.860;9.198;2023-03-07T16:38:18;7.00;99.90
8595;DHT22;4335;48.860;9.198;2023-03-07T16:40:48;7.00;99.90
8595;DHT22;4335;48.860;9.198;2023-03-07T16:43:31;7.00;99.90
8595;DHT22;4335;48.860;9.198;2023-03-07T16:46:00;6.90;99.90
8595;DHT22;4335;48.860;9.198;2023-03-07T16:48:32;6.90;99.90
8595;DHT22;4335;48.860;9.198;2023-03-07T16:50:59;6.90;99.90
8595;DHT22;4335;48.860;9.198;2023-03-07T16:53:28;6.80;99.90
8595;DHT22;4335;48.860;9.198;2023-03-07T16:55:57;6.70;99.90
8595;DHT22;4335;48.860;9.198;2023-03-07T16:58:27;6.70;99.90
8595;DHT22;4335;48.860;9.198;2023-03-07T17:00:55;6.60;99.90
8595;DHT22;4335;48.860;9.198;2023-03-07T17:03:23;6.60;99.90
8595;DHT22;4335;48.860;9.198;2023-03-07T17:05:51;6.60;99.90
8595;DHT22;4335;48.860;9.198;2023-03-07T17:08:20;6.60;99.90
8595;DHT22;4335;48.860;9.198;2023-03-07T17:10:51;6.60;99.90